Chicago, Illinois
Traffic Map
Current Weather Conditions
Chicago, Illinois
Broken Clouds
Broken Clouds
23°
Feels Like: 23°
Wind Chill: 23° Ceiling: 7500
Heat Index: 23° Visibility: 10mi
Dew Point: 13° Wind: 14mph
Humidity: 53% Direction: 300° (WNW)
Pressure: 30.02in Gusts: 22mph
Raw Report DataKMDW 272053Z 30012G19KT 10SM SCT055 BKN075 BKN095 23/13 A3002 RMK AO2 SLP157 60000 T02280128 53009
Traffic Incident Summary
Active as of:
Severity:
Category:
InformationThere was an issue retrieving the traffic information for this location. Please try a different location or try again shortly.
Advertisements
Track Severe Weather on mobile